Time;durP1;ratioP1;P1;durP2;ratioP2;P2;SDS_P1;SDS_P2;PMS_P1;PMS_P2;Temp;Humidity;BMP_temperature;BMP_pressure;BME280_temperature;BME280_humidity;BME280_pressure;Samples;Min_cycle;Max_cycle;Signal;HPM_P1;HPM_P2
2022/08/18 00:01:23;;;;;;;;;10.25;10.00;;;;;21.51;65.83;100985.91;5076716;27;73319;-75
2022/08/18 00:03:49;;;;;;;;;13.00;11.25;;;;;21.50;65.53;100992.16;5078083;27;45306;-76
2022/08/18 00:06:16;;;;;;;;;12.50;11.50;;;;;21.51;65.53;100988.53;5076819;28;45444;-76
2022/08/18 00:08:41;;;;;;;;;14.00;11.00;;;;;21.51;65.82;100993.84;5076627;27;46405;-75
2022/08/18 00:11:06;;;;;;;;;14.00;12.50;;;;;21.54;66.66;100983.88;5076913;28;68624;-76
2022/08/18 00:13:32;;;;;;;;;12.00;11.75;;;;;21.53;65.96;100989.31;5075900;27;67908;-76
2022/08/18 00:15:57;;;;;;;;;13.75;12.75;;;;;21.49;66.17;100991.34;5076178;27;45402;-76
2022/08/18 00:18:22;;;;;;;;;15.25;12.50;;;;;21.50;66.45;100990.34;5076659;27;75332;-76
2022/08/18 00:20:48;;;;;;;;;14.00;13.00;;;;;21.49;66.25;100996.63;5076581;28;45398;-76
2022/08/18 00:23:14;;;;;;;;;11.00;11.00;;;;;21.43;65.79;100994.34;5076937;28;65759;-76
2022/08/18 00:25:39;;;;;;;;;12.00;9.75;;;;;21.43;66.05;101004.94;5077733;27;45289;-77
2022/08/18 00:28:05;;;;;;;;;12.75;11.00;;;;;21.44;65.86;100994.28;5076518;28;74398;-76
2022/08/18 00:30:31;;;;;;;;;15.25;12.50;;;;;21.44;65.74;100985.47;5077095;27;45427;-75
2022/08/18 00:32:58;;;;;;;;;12.75;10.50;;;;;21.44;66.21;100985.47;5077958;28;45456;-76
2022/08/18 00:35:28;;;;;;;;;13.00;10.50;;;;;21.40;66.71;100986.66;5076071;27;45476;-76
2022/08/18 00:37:55;;;;;;;;;14.50;13.00;;;;;21.38;66.40;100993.84;5077521;27;45471;-76
2022/08/18 00:40:24;;;;;;;;;12.50;11.50;;;;;21.37;66.70;100986.84;5077391;27;45423;-76
2022/08/18 00:42:56;;;;;;;;;12.75;11.00;;;;;21.37;66.62;100993.00;5077610;27;45318;-76
2022/08/18 00:45:26;;;;;;;;;11.50;10.50;;;;;21.31;66.63;100988.13;5077070;27;45557;-76
2022/08/18 00:47:51;;;;;;;;;12.75;12.00;;;;;21.22;65.95;101000.19;5077128;27;45488;-76
2022/08/18 00:50:24;;;;;;;;;12.50;9.25;;;;;21.14;66.58;100997.25;5077492;27;45363;-76
2022/08/18 00:52:57;;;;;;;;;12.75;11.75;;;;;21.07;66.84;101002.13;5077123;27;45353;-76
2022/08/18 00:55:24;;;;;;;;;11.00;9.75;;;;;21.03;67.01;100995.34;5075806;28;45340;-76
2022/08/18 00:57:51;;;;;;;;;10.50;10.00;;;;;21.01;67.23;100991.97;5077049;27;45462;-76
2022/08/18 01:00:17;;;;;;;;;10.50;10.00;;;;;21.00;66.80;101000.84;5075538;28;45437;-76
2022/08/18 01:02:47;;;;;;;;;11.25;9.50;;;;;20.98;66.67;101002.75;5076086;28;45486;-76
2022/08/18 01:05:20;;;;;;;;;12.25;11.25;;;;;20.98;66.95;101000.09;5076074;28;45382;-76
2022/08/18 01:07:48;;;;;;;;;12.50;12.50;;;;;20.96;66.01;101007.31;5075568;27;45862;-75
2022/08/18 01:10:16;;;;;;;;;15.50;13.00;;;;;20.92;66.16;101012.91;5075892;28;45384;-75
2022/08/18 01:12:46;;;;;;;;;14.00;12.00;;;;;20.85;66.57;101007.19;5077104;27;45345;-75
2022/08/18 01:15:13;;;;;;;;;13.75;11.50;;;;;20.78;66.57;101011.19;5058277;28;45425;-75
2022/08/18 01:23:29;;;;;;;;;12.25;10.75;;;;;20.68;66.56;101006.53;5075933;28;45765;-75
2022/08/18 01:26:01;;;;;;;;;10.75;10.00;;;;;20.68;67.13;101010.97;5075741;27;69105;-76
2022/08/18 01:28:30;;;;;;;;;15.50;10.25;;;;;20.69;66.45;101007.41;5075882;27;45590;-76
2022/08/18 01:30:57;;;;;;;;;13.75;10.75;;;;;20.64;66.27;101007.69;5076831;27;45703;-76
2022/08/18 01:33:31;;;;;;;;;12.75;12.00;;;;;20.61;66.70;100999.94;5076839;27;45392;-76
2022/08/18 01:36:01;;;;;;;;;12.50;10.00;;;;;20.62;67.13;101006.94;5075380;28;45377;-76
2022/08/18 01:38:26;;;;;;;;;10.00;10.00;;;;;20.65;67.24;101013.81;5075104;27;46629;-75
2022/08/18 01:40:53;;;;;;;;;10.75;9.00;;;;;20.64;66.71;101006.84;5076553;28;45483;-75
2022/08/18 01:43:18;;;;;;;;;14.50;10.75;;;;;20.63;66.79;101005.97;5076177;27;45360;-76
2022/08/18 01:45:44;;;;;;;;;12.50;11.75;;;;;20.65;66.68;101013.81;5075126;28;45419;-75
2022/08/18 01:48:09;;;;;;;;;13.00;12.00;;;;;20.64;66.67;101015.63;5076134;27;46977;-75
2022/08/18 01:50:38;;;;;;;;;11.75;11.25;;;;;20.63;66.60;101018.38;5076391;27;50479;-76
2022/08/18 01:53:04;;;;;;;;;12.50;11.00;;;;;20.62;66.76;101027.25;5076396;27;45449;-75
2022/08/18 01:55:34;;;;;;;;;12.75;10.25;;;;;20.58;66.05;101015.13;5075069;28;45454;-75
2022/08/18 01:58:00;;;;;;;;;11.25;10.25;;;;;20.54;66.02;101026.88;5075752;27;47087;-76
2022/08/18 02:00:26;;;;;;;;;10.25;9.75;;;;;20.47;66.15;101034.38;5076150;28;45312;-75
2022/08/18 02:02:51;;;;;;;;;10.00;9.00;;;;;20.40;66.21;101039.22;5075663;27;61670;-75
2022/08/18 02:05:20;;;;;;;;;10.25;8.75;;;;;20.33;66.18;101032.63;5074231;28;68216;-76
2022/08/18 02:07:46;;;;;;;;;12.00;10.50;;;;;20.24;66.47;101030.59;5074669;28;46212;-75
2022/08/18 02:10:11;;;;;;;;;16.00;13.00;;;;;20.23;66.62;101036.84;5075044;27;71558;-76
2022/08/18 02:12:37;;;;;;;;;14.25;10.75;;;;;20.17;67.24;101037.22;5075747;27;45425;-76
2022/08/18 02:15:04;;;;;;;;;14.75;12.00;;;;;20.09;67.41;101038.53;5076367;28;45486;-76
2022/08/18 02:17:36;;;;;;;;;11.75;11.75;;;;;20.06;67.52;101036.13;5075785;27;45404;-76
2022/08/18 02:20:03;;;;;;;;;15.25;11.00;;;;;20.04;67.34;101030.09;5074502;28;45787;-75
2022/08/18 02:22:28;;;;;;;;;13.25;9.50;;;;;20.02;67.45;101032.00;5076172;27;45358;-75
2022/08/18 02:24:56;;;;;;;;;17.75;13.25;;;;;20.04;67.53;101039.78;5075090;27;68492;-75
2022/08/18 02:27:21;;;;;;;;;13.50;12.25;;;;;20.00;67.02;101052.38;5075542;28;47620;-75
2022/08/18 02:29:46;;;;;;;;;12.00;11.50;;;;;19.97;67.50;101036.72;5075768;28;45360;-75
2022/08/18 02:32:12;;;;;;;;;12.25;9.00;;;;;19.97;67.12;101033.22;5075123;27;66556;-76
2022/08/18 02:34:38;;;;;;;;;10.00;10.00;;;;;19.95;67.33;101038.59;5074886;27;63671;-76
2022/08/18 02:37:03;;;;;;;;;9.75;9.75;;;;;19.94;67.92;101030.78;5074695;28;75451;-76
2022/08/18 02:39:32;;;;;;;;;11.50;11.00;;;;;19.93;67.02;101032.56;5074657;28;45384;-76
2022/08/18 02:41:57;;;;;;;;;13.50;10.50;;;;;19.90;66.95;101035.41;5075663;27;45400;-75
2022/08/18 02:44:22;;;;;;;;;11.75;10.00;;;;;19.88;67.23;101035.50;5075763;27;45455;-76
2022/08/18 02:46:52;;;;;;;;;13.00;10.00;;;;;19.84;67.06;101030.50;5074596;27;75221;-75
2022/08/18 02:49:18;;;;;;;;;9.50;9.00;;;;;19.72;67.33;101018.88;5075497;27;45635;-76
2022/08/18 02:51:43;;;;;;;;;9.50;9.00;;;;;19.61;67.47;101024.81;5075744;27;45327;-75
2022/08/18 02:54:10;;;;;;;;;8.00;8.00;;;;;19.62;68.27;101017.78;5074078;28;45342;-76
2022/08/18 02:56:35;;;;;;;;;11.00;9.25;;;;;19.67;68.39;101019.19;5075171;28;45355;-75
2022/08/18 02:59:08;;;;;;;;;9.00;8.25;;;;;19.70;68.07;101020.78;5074287;28;45280;-76
2022/08/18 03:01:37;;;;;;;;;8.75;7.75;;;;;19.71;67.87;101017.19;5074604;28;45394;-75
2022/08/18 03:04:05;;;;;;;;;12.50;10.25;;;;;19.69;67.72;101016.44;5074387;28;45477;-76
2022/08/18 03:06:31;;;;;;;;;11.00;8.50;;;;;19.66;67.64;101011.34;5074058;27;47161;-75
2022/08/18 03:08:57;;;;;;;;;10.50;8.50;;;;;19.64;67.69;101005.31;5074852;27;45366;-75
2022/08/18 03:11:25;;;;;;;;;9.75;9.00;;;;;19.62;67.54;101001.94;5074321;28;45243;-76
2022/08/18 03:13:51;;;;;;;;;9.25;8.25;;;;;19.53;68.07;100996.25;5074170;28;45350;-75
2022/08/18 03:16:17;;;;;;;;;14.75;11.00;;;;;19.54;67.81;101005.06;5076691;27;45517;-77
2022/08/18 03:18:45;;;;;;;;;9.50;8.75;;;;;19.54;67.81;101008.53;5079006;27;45752;-75
2022/08/18 03:21:16;;;;;;;;;9.00;8.00;;;;;19.52;67.57;101004.31;5078814;27;45465;-75
2022/08/18 03:23:42;;;;;;;;;13.75;9.75;;;;;19.46;67.68;101000.22;5078408;27;45385;-75
2022/08/18 03:26:13;;;;;;;;;12.00;10.75;;;;;19.43;68.22;101002.22;5078479;27;46159;-76
2022/08/18 03:28:39;;;;;;;;;9.50;9.00;;;;;19.40;68.10;100997.13;5078604;27;45404;-76
2022/08/18 03:31:05;;;;;;;;;8.50;6.75;;;;;19.39;67.72;101001.56;5077483;27;45429;-76
2022/08/18 03:33:31;;;;;;;;;10.25;7.75;;;;;19.36;68.39;100995.63;5077353;27;45467;-76
2022/08/18 03:36:06;;;;;;;;;10.25;8.00;;;;;19.33;68.34;101000.16;5076689;27;51077;-75
2022/08/18 03:38:31;;;;;;;;;9.75;8.00;;;;;19.28;68.31;101002.22;5078260;27;45820;-76
2022/08/18 03:40:56;;;;;;;;;8.00;6.25;;;;;19.27;67.99;101003.16;5078490;27;45395;-75
2022/08/18 03:43:23;;;;;;;;;8.50;8.00;;;;;19.23;67.92;100993.75;5076346;27;66853;-75
2022/08/18 03:45:49;;;;;;;;;11.50;10.00;;;;;19.17;68.21;100994.13;5078505;28;45476;-75
2022/08/18 03:48:14;;;;;;;;;8.75;8.25;;;;;19.24;68.70;100997.22;5078287;28;45478;-75
2022/08/18 03:50:40;;;;;;;;;7.75;6.75;;;;;19.28;67.91;101001.38;5078519;27;45299;-75
2022/08/18 03:53:05;;;;;;;;;11.00;8.00;;;;;19.27;68.14;100987.31;5077936;27;45456;-75
2022/08/18 03:55:31;;;;;;;;;10.50;8.00;;;;;19.22;67.34;100994.66;5078006;28;45583;-75
2022/08/18 03:57:57;;;;;;;;;7.25;6.25;;;;;19.23;68.07;100998.19;5078172;27;45370;-75
2022/08/18 04:00:25;;;;;;;;;8.00;7.50;;;;;19.23;68.71;100991.09;5078298;27;45293;-75
2022/08/18 04:02:50;;;;;;;;;7.00;7.00;;;;;19.29;68.04;101006.56;5076938;28;45505;-76
2022/08/18 04:05:16;;;;;;;;;9.25;8.50;;;;;19.32;68.64;101009.00;5077149;27;75404;-76
2022/08/18 04:07:41;;;;;;;;;9.25;7.50;;;;;19.41;68.72;101004.09;5077225;27;45460;-76
2022/08/18 04:10:07;;;;;;;;;8.25;8.25;;;;;19.45;67.93;101002.97;5078069;27;45348;-76
2022/08/18 04:12:32;;;;;;;;;6.75;6.50;;;;;19.43;67.91;101005.72;5078143;27;45431;-76
2022/08/18 04:14:58;;;;;;;;;6.25;5.25;;;;;19.44;68.58;100990.72;5078093;27;45367;-75
2022/08/18 04:17:23;;;;;;;;;8.00;8.00;;;;;19.46;68.23;100992.31;5076942;27;64346;-76
2022/08/18 04:19:50;;;;;;;;;8.25;8.25;;;;;19.47;67.94;100995.81;5077766;27;45388;-76
2022/08/18 04:22:16;;;;;;;;;9.75;8.00;;;;;19.48;68.67;100995.72;5077765;27;45416;-77
2022/08/18 04:24:42;;;;;;;;;7.00;7.00;;;;;19.50;67.53;100998.25;5077631;28;45274;-75
2022/08/18 04:27:07;;;;;;;;;9.50;8.00;;;;;19.51;68.55;100998.16;5077161;27;45485;-75
2022/08/18 04:29:33;;;;;;;;;10.00;7.25;;;;;19.52;67.77;100997.22;5077405;27;45431;-76
2022/08/18 04:32:00;;;;;;;;;9.00;9.00;;;;;19.51;67.85;100990.22;5077707;27;45336;-75
2022/08/18 04:34:26;;;;;;;;;8.75;6.25;;;;;19.48;67.49;100990.44;5077292;27;46376;-76
2022/08/18 04:36:52;;;;;;;;;8.00;6.00;;;;;19.49;68.63;101001.84;5077255;27;45417;-75
2022/08/18 04:39:18;;;;;;;;;9.50;7.50;;;;;19.49;68.26;101000.03;5076376;27;45396;-76
2022/08/18 04:41:43;;;;;;;;;7.75;5.25;;;;;19.49;67.80;100993.94;5076546;27;70542;-77
2022/08/18 04:44:10;;;;;;;;;4.25;4.25;;;;;19.51;67.65;100992.88;5076453;27;76129;-76
2022/08/18 04:46:41;;;;;;;;;8.00;8.00;;;;;19.49;67.49;101000.03;5076180;27;45349;-76
2022/08/18 04:49:09;;;;;;;;;6.00;6.00;;;;;19.47;68.10;101003.72;5077424;27;45354;-76
2022/08/18 04:51:35;;;;;;;;;11.00;8.75;;;;;19.44;67.77;101004.75;5076085;27;45492;-76
2022/08/18 04:54:01;;;;;;;;;7.25;7.25;;;;;19.41;67.55;101004.97;5075553;28;46084;-76
2022/08/18 04:56:32;;;;;;;;;8.50;8.50;;;;;19.43;67.45;101011.00;5076607;27;54366;-76
2022/08/18 04:59:00;;;;;;;;;11.50;9.00;;;;;19.42;67.55;101024.28;5076020;28;45405;-76
2022/08/18 05:01:29;;;;;;;;;11.00;8.50;;;;;19.41;67.95;101031.38;5077271;28;45403;-76
2022/08/18 05:03:55;;;;;;;;;11.00;8.00;;;;;19.45;67.67;101042.59;5075621;28;47157;-75
2022/08/18 05:06:26;;;;;;;;;10.00;8.00;;;;;19.45;67.48;101050.50;5075509;28;45691;-76
2022/08/18 05:08:53;;;;;;;;;9.50;9.50;;;;;19.43;67.40;101047.94;5075740;27;45318;-75
2022/08/18 05:11:20;;;;;;;;;8.00;8.00;;;;;19.44;67.14;101047.00;5075850;28;45420;-75
2022/08/18 05:13:46;;;;;;;;;10.25;8.00;;;;;19.38;66.55;101047.38;5076838;27;46624;-75
2022/08/18 05:16:11;;;;;;;;;12.25;10.00;;;;;19.38;67.01;101057.94;5077001;27;45466;-75
2022/08/18 05:18:39;;;;;;;;;10.25;9.50;;;;;19.33;67.01;101058.22;5075871;27;68128;-75
2022/08/18 05:21:13;;;;;;;;;10.25;8.00;;;;;19.25;66.98;101057.00;5076633;27;45384;-75
2022/08/18 05:23:40;;;;;;;;;10.75;10.00;;;;;19.25;67.06;101059.63;5075770;28;46486;-76
2022/08/18 05:26:05;;;;;;;;;12.25;10.00;;;;;19.27;67.66;101057.75;5076766;27;45837;-76
2022/08/18 05:28:33;;;;;;;;;10.25;9.00;;;;;19.24;67.74;101061.44;5075876;28;59093;-75
2022/08/18 05:31:25;;;;;;;;;8.75;7.00;;;;;19.21;67.54;101061.59;5076575;27;45323;-75
2022/08/18 05:33:52;;;;;;;;;10.50;9.75;;;;;19.23;67.66;101062.34;5076095;27;45381;-75
2022/08/18 05:36:23;;;;;;;;;9.00;9.00;;;;;19.29;67.90;101058.50;5074775;28;45366;-75
2022/08/18 05:39:08;;;;;;;;;8.50;7.00;;;;;19.32;67.84;101063.59;5076053;27;45421;-75
2022/08/18 05:41:37;;;;;;;;;8.75;8.25;;;;;19.36;67.88;101066.91;5074958;27;45506;-76
2022/08/18 05:44:04;;;;;;;;;8.75;8.75;;;;;19.34;67.71;101064.34;5076437;27;45318;-76
2022/08/18 05:46:39;;;;;;;;;14.00;10.75;;;;;19.31;67.42;101065.38;5075207;28;45354;-75
2022/08/18 05:49:05;;;;;;;;;12.25;9.25;;;;;19.35;67.43;101066.03;5074817;28;45315;-74
2022/08/18 05:51:35;;;;;;;;;14.25;10.25;;;;;19.37;67.92;101056.25;5075163;28;45467;-75
2022/08/18 05:56:48;;;;;;;;;11.50;11.25;;;;;19.44;67.84;101076.03;5075275;28;45285;-75
2022/08/18 05:59:19;;;;;;;;;13.75;10.25;;;;;19.49;67.86;101078.41;5076400;27;45465;-75
2022/08/18 06:01:51;;;;;;;;;12.00;10.25;;;;;19.49;67.56;101079.25;5075151;28;45397;-75
2022/08/18 06:04:54;;;;;;;;;10.25;10.00;;;;;19.49;67.87;101073.13;5074707;28;45977;-75
2022/08/18 06:07:38;;;;;;;;;14.25;10.25;;;;;19.55;68.09;101083.31;5036384;28;45233;-75
2022/08/18 06:10:06;;;;;;;;;14.50;13.00;;;;;19.62;68.35;101084.63;5053684;28;45396;-75
2022/08/18 06:12:40;;;;;;;;;13.25;11.75;;;;;19.68;68.36;101086.88;5053495;28;45410;-75
2022/08/18 06:15:16;;;;;;;;;13.75;11.00;;;;;19.70;68.14;101081.50;5053411;28;46926;-74
2022/08/18 06:18:05;;;;;;;;;13.50;11.75;;;;;19.66;68.10;101075.56;5036348;28;45445;-75
2022/08/18 06:20:51;;;;;;;;;12.25;11.25;;;;;19.67;67.46;101074.63;5036865;28;45491;-75
2022/08/18 06:23:31;;;;;;;;;13.00;11.25;;;;;19.68;68.24;101075.47;5036961;28;45351;-74
2022/08/18 06:26:27;;;;;;;;;18.75;14.25;;;;;19.70;67.31;101071.78;5053390;28;45364;-75
2022/08/18 06:29:13;;;;;;;;;12.00;10.50;;;;;19.68;67.26;101081.59;5052819;28;45451;-75
2022/08/18 06:31:45;;;;;;;;;23.75;18.50;;;;;19.67;68.16;101081.72;5036753;28;45495;-75
2022/08/18 06:34:16;;;;;;;;;19.00;14.75;;;;;19.71;67.54;101091.16;5052949;28;45542;-75
2022/08/18 06:36:54;;;;;;;;;20.25;16.25;;;;;19.75;67.42;101087.41;5053099;28;45406;-74
2022/08/18 06:39:25;;;;;;;;;19.00;15.25;;;;;19.77;67.71;101090.78;5053308;28;45829;-75
2022/08/18 06:41:52;;;;;;;;;16.00;15.00;;;;;19.82;67.79;101093.16;5053328;28;45369;-74
2022/08/18 06:44:43;;;;;;;;;19.75;16.00;;;;;19.84;67.39;101084.19;5055494;28;45414;-75
2022/08/18 06:47:33;;;;;;;;;21.50;17.25;;;;;19.86;67.97;101081.44;5053711;28;46650;-75
2022/08/18 06:50:15;;;;;;;;;24.50;19.25;;;;;19.91;67.30;101089.94;5055247;28;45762;-74
2022/08/18 06:53:10;;;;;;;;;23.00;18.00;;;;;19.97;67.50;101089.56;5058983;28;45255;-74
2022/08/18 06:55:44;;;;;;;;;21.75;17.50;;;;;20.00;67.13;101088.50;5040566;28;71766;-75
2022/08/18 06:58:15;;;;;;;;;19.00;16.25;;;;;20.05;67.35;101091.69;5058625;28;46512;-75
2022/08/18 07:00:48;;;;;;;;;24.00;17.75;;;;;20.12;67.00;101090.38;5058724;28;45370;-75
2022/08/18 07:03:16;;;;;;;;;19.00;18.50;;;;;20.18;68.45;101092.63;5058524;28;45376;-75
2022/08/18 07:06:01;;;;;;;;;20.25;14.25;;;;;20.23;66.89;101098.47;5058695;28;45503;-75
2022/08/18 07:08:30;;;;;;;;;26.25;20.00;;;;;20.25;66.89;101104.50;5073901;28;45443;-75
2022/08/18 07:11:21;;;;;;;;;18.00;17.75;;;;;20.29;66.86;101094.59;5057450;28;45867;-75
2022/08/18 07:13:57;;;;;;;;;28.00;22.00;;;;;20.30;66.66;101101.59;5058587;28;45407;-75
2022/08/18 07:16:29;;;;;;;;;23.75;20.50;;;;;20.38;67.05;101112.50;5057030;28;45488;-75
2022/08/18 07:19:09;;;;;;;;;25.50;20.00;;;;;20.45;66.70;101105.88;5058306;28;47018;-75
2022/08/18 07:21:36;;;;;;;;;30.25;21.75;;;;;20.53;66.85;101112.47;5056945;28;45381;-75
2022/08/18 07:24:10;;;;;;;;;28.50;22.75;;;;;20.61;66.40;101108.38;5057297;28;45366;-75
2022/08/18 07:27:01;;;;;;;;;35.50;26.50;;;;;20.68;66.34;101116.78;5058529;28;45468;-75
2022/08/18 07:29:28;;;;;;;;;22.75;17.50;;;;;20.72;66.25;101112.97;5057169;28;45375;-75
2022/08/18 07:31:54;;;;;;;;;28.25;27.00;;;;;20.76;66.12;101117.09;5065367;28;45400;-75
2022/08/18 07:34:35;;;;;;;;;28.50;24.75;;;;;20.77;66.28;101115.34;5077523;27;45408;-76
2022/08/18 07:37:04;;;;;;;;;33.00;27.50;;;;;20.81;66.84;101119.47;5077450;27;45441;-75
2022/08/18 07:39:45;;;;;;;;;34.50;26.00;;;;;20.81;66.52;101111.53;5078361;27;46531;-75
2022/08/18 07:42:33;;;;;;;;;31.75;24.75;;;;;20.92;66.56;101113.47;5077209;27;45990;-75
2022/08/18 07:45:09;;;;;;;;;30.75;26.50;;;;;21.00;66.54;101111.97;5076921;28;45570;-75
2022/08/18 07:47:43;;;;;;;;;35.50;28.00;;;;;21.09;65.98;101123.75;5078313;27;45360;-75
2022/08/18 07:50:08;;;;;;;;;31.00;27.00;;;;;21.12;65.45;101115.63;5078448;27;46273;-75
2022/08/18 07:52:43;;;;;;;;;28.50;24.75;;;;;21.17;65.69;101112.66;5076938;28;47164;-75
2022/08/18 07:55:26;;;;;;;;;33.75;26.00;;;;;21.22;65.16;101114.03;5076774;27;45350;-75
2022/08/18 07:58:25;;;;;;;;;35.00;30.00;;;;;21.22;64.94;101111.38;5076910;28;45418;-75
2022/08/18 08:00:56;;;;;;;;;31.50;27.75;;;;;21.31;65.39;101111.72;5077923;27;46570;-74
2022/08/18 08:03:45;;;;;;;;;35.50;28.00;;;;;21.43;65.34;101110.88;5077084;27;45906;-75
2022/08/18 08:06:13;;;;;;;;;31.25;28.25;;;;;21.56;64.91;101108.25;5077004;27;45334;-75
2022/08/18 08:08:49;;;;;;;;;31.00;27.00;;;;;21.62;64.30;101105.22;5076645;28;45511;-75
2022/08/18 08:11:29;;;;;;;;;30.25;26.75;;;;;21.66;64.47;101106.69;5077983;27;45369;-75
2022/08/18 08:14:33;;;;;;;;;38.00;29.50;;;;;21.72;64.12;101108.06;5077361;27;45359;-75
2022/08/18 08:17:22;;;;;;;;;32.00;28.00;;;;;21.76;64.08;101120.97;5074187;27;45577;-75
2022/08/18 08:19:58;;;;;;;;;32.00;27.75;;;;;21.87;63.87;101111.44;5077736;27;45237;-75
2022/08/18 08:22:46;;;;;;;;;33.25;29.00;;;;;21.97;63.90;101096.56;5077540;27;47174;-75
2022/08/18 08:25:39;;;;;;;;;33.25;29.75;;;;;22.07;63.34;101097.59;5076395;27;45389;-75
2022/08/18 08:28:30;;;;;;;;;30.75;26.50;;;;;22.22;63.33;101090.34;5076512;28;45397;-75
2022/08/18 08:31:14;;;;;;;;;34.25;28.25;;;;;22.34;63.08;101086.84;5077686;27;45435;-75
2022/08/18 08:33:46;;;;;;;;;32.25;29.50;;;;;22.48;62.81;101091.13;5057339;28;45454;-75
2022/08/18 08:36:38;;;;;;;;;37.25;30.25;;;;;22.57;62.41;101090.44;5071813;28;45983;-75
2022/08/18 08:39:13;;;;;;;;;30.25;27.75;;;;;22.67;61.73;101092.41;5075115;27;45570;-75
2022/08/18 08:41:39;;;;;;;;;33.25;27.25;;;;;22.70;61.16;101097.50;5076265;27;45298;-75
2022/08/18 08:44:14;;;;;;;;;33.75;28.00;;;;;22.70;61.11;101097.50;5075817;28;47225;-75
2022/08/18 08:46:45;;;;;;;;;32.50;27.25;;;;;22.77;61.16;101098.72;5076066;28;45874;-76
2022/08/18 08:49:28;;;;;;;;;34.25;27.75;;;;;22.85;61.06;101091.03;5075998;27;45339;-75
2022/08/18 08:52:06;;;;;;;;;28.00;25.75;;;;;22.87;61.05;101096.25;5077254;27;45273;-75
2022/08/18 08:54:49;;;;;;;;;26.75;24.50;;;;;22.90;60.88;101104.81;5076774;27;46509;-75
2022/08/18 08:57:16;;;;;;;;;32.25;28.25;;;;;22.92;60.48;101109.97;5076791;27;45340;-75
2022/08/18 08:59:45;;;;;;;;;28.75;24.50;;;;;22.94;60.69;101108.94;5076039;27;45261;-75
2022/08/18 09:02:48;;;;;;;;;29.75;26.00;;;;;23.00;60.68;101108.44;5076487;27;45405;-75
2022/08/18 09:05:33;;;;;;;;;31.00;24.00;;;;;23.09;60.40;101100.81;5054615;28;46176;-75
2022/08/18 09:08:04;;;;;;;;;30.75;26.75;;;;;23.15;60.22;101097.66;5054297;28;45425;-75
2022/08/18 09:10:58;;;;;;;;;28.00;25.00;;;;;23.22;59.81;101112.19;5054571;28;45369;-75
2022/08/18 09:13:41;;;;;;;;;39.25;28.00;;;;;23.25;60.06;101106.59;5053937;28;45448;-75
2022/08/18 09:16:38;;;;;;;;;29.25;25.00;;;;;23.38;60.02;101115.34;5054399;28;46059;-75
2022/08/18 09:19:38;;;;;;;;;33.00;28.00;;;;;23.49;59.77;101111.00;5054086;28;45411;-75
2022/08/18 09:22:21;;;;;;;;;29.75;25.75;;;;;23.62;59.52;101118.88;5054062;28;45373;-74
2022/08/18 09:24:48;;;;;;;;;27.00;22.75;;;;;23.71;59.29;101120.81;5054290;28;45582;-76
2022/08/18 09:27:22;;;;;;;;;34.75;30.75;;;;;23.80;58.54;101127.25;5036765;28;46446;-75
2022/08/18 09:29:57;;;;;;;;;31.50;26.00;;;;;23.87;59.32;101118.66;5053912;28;45325;-75
2022/08/18 09:32:22;;;;;;;;;27.00;24.00;;;;;23.96;58.67;101117.94;5037159;28;45432;-75
2022/08/18 09:34:47;;;;;;;;;31.00;26.00;;;;;24.05;58.46;101121.69;5053981;28;45266;-75
2022/08/18 09:37:19;;;;;;;;;29.00;27.00;;;;;24.13;57.68;101124.56;5053796;28;45341;-75
2022/08/18 09:43:16;;;;;;;;;32.75;27.00;;;;;24.35;57.08;101118.34;5073662;27;45308;-75
2022/08/18 09:45:54;;;;;;;;;28.75;25.25;;;;;24.39;55.81;101121.63;5075809;27;45640;-76
2022/08/18 09:48:28;;;;;;;;;24.00;22.75;;;;;24.39;55.98;101115.47;5076230;27;46514;-76
2022/08/18 09:51:00;;;;;;;;;30.50;27.00;;;;;24.46;56.25;101112.16;5075116;28;45462;-76
2022/08/18 09:53:51;;;;;;;;;28.25;23.50;;;;;24.57;56.15;101107.78;5074872;27;45388;-76
2022/08/18 09:56:49;;;;;;;;;27.00;24.25;;;;;24.68;55.59;101102.44;5076024;27;45360;-76
2022/08/18 09:59:49;;;;;;;;;26.50;23.25;;;;;24.78;54.96;101116.69;5075872;27;45370;-75
2022/08/18 10:02:32;;;;;;;;;30.00;24.25;;;;;24.84;54.41;101113.50;5053591;28;45494;-75
2022/08/18 10:05:16;;;;;;;;;27.50;22.75;;;;;24.89;55.77;101119.28;5053661;28;45397;-76
2022/08/18 10:08:01;;;;;;;;;25.25;21.00;;;;;24.99;55.14;101107.88;5053545;28;45440;-75
2022/08/18 10:10:48;;;;;;;;;27.75;23.50;;;;;25.14;55.44;101106.56;5053062;28;45634;-76
2022/08/18 10:13:34;;;;;;;;;26.00;22.00;;;;;25.27;53.13;101101.91;5053502;28;46281;-76
2022/08/18 10:16:20;;;;;;;;;20.50;15.75;;;;;25.32;52.99;101101.53;5036804;28;45418;-75
2022/08/18 10:19:13;;;;;;;;;24.75;23.00;;;;;25.47;53.54;101088.69;5053280;28;45470;-75
2022/08/18 10:21:54;;;;;;;;;23.50;20.00;;;;;25.59;52.96;101084.13;5053218;28;46818;-76
2022/08/18 10:24:21;;;;;;;;;19.75;18.75;;;;;25.66;52.49;101090.59;5052822;28;45310;-75
2022/08/18 10:26:49;;;;;;;;;18.00;17.25;;;;;25.74;52.38;101080.09;5055747;28;45410;-75
2022/08/18 10:29:24;;;;;;;;;20.75;20.00;;;;;25.84;52.12;101081.00;5056663;28;45430;-75
2022/08/18 10:31:55;;;;;;;;;23.25;18.75;;;;;25.92;50.83;101079.47;5056393;28;45511;-75
2022/08/18 10:34:49;;;;;;;;;19.75;18.25;;;;;26.02;50.91;101061.69;5056586;28;45526;-75
2022/08/18 10:37:19;;;;;;;;;19.75;16.00;;;;;26.06;50.54;101058.63;5047878;28;45520;-75
2022/08/18 10:39:47;;;;;;;;;25.00;20.25;;;;;26.13;49.49;101058.91;5077667;28;45505;-75
2022/08/18 10:42:21;;;;;;;;;23.25;21.75;;;;;26.17;50.48;101064.81;5077933;28;47359;-75
2022/08/18 10:44:49;;;;;;;;;23.25;22.00;;;;;26.26;49.47;101058.63;5077934;27;45330;-75
2022/08/18 10:47:22;;;;;;;;;17.50;15.25;;;;;26.44;49.28;101048.97;5078024;28;45317;-76
2022/08/18 10:49:49;;;;;;;;;15.75;14.75;;;;;26.58;48.39;101053.03;5079093;27;45418;-75
2022/08/18 10:52:26;;;;;;;;;16.00;14.75;;;;;26.68;47.59;101055.75;5077904;27;45350;-75
2022/08/18 10:54:58;;;;;;;;;17.75;12.50;;;;;26.78;47.56;101064.59;5077319;27;45811;-75
2022/08/18 10:58:09;;;;;;;;;14.75;11.75;;;;;26.82;46.54;101059.81;5079059;27;45328;-76
2022/08/18 11:00:54;;;;;;;;;17.00;15.00;;;;;26.97;46.55;101068.22;5077800;27;45593;-76
2022/08/18 11:03:50;;;;;;;;;21.00;14.75;;;;;27.14;46.32;101062.13;5077638;27;46232;-75
2022/08/18 11:06:19;;;;;;;;;18.75;15.50;;;;;27.35;47.05;101058.44;5077697;27;45433;-76
2022/08/18 11:08:47;;;;;;;;;17.25;14.50;;;;;27.48;44.74;101061.63;5077296;28;45235;-76
2022/08/18 11:11:13;;;;;;;;;10.75;9.25;;;;;27.55;43.84;101062.72;5077742;27;45390;-76
2022/08/18 11:13:47;;;;;;;;;9.50;8.75;;;;;27.67;42.85;101066.03;5077430;27;48193;-76
2022/08/18 11:16:22;;;;;;;;;11.75;11.50;;;;;27.84;44.95;101061.75;5078787;28;45415;-76
2022/08/18 11:18:51;;;;;;;;;8.25;8.25;;;;;28.01;42.88;101060.13;5077483;28;45366;-75
2022/08/18 11:21:33;;;;;;;;;8.25;7.00;;;;;28.10;41.58;101061.03;5077550;28;45492;-75
2022/08/18 11:24:20;;;;;;;;;10.00;9.25;;;;;28.23;41.78;101055.31;5078401;27;45294;-76
2022/08/18 11:26:50;;;;;;;;;14.75;12.75;;;;;28.47;42.15;101052.91;5078429;27;45912;-76
2022/08/18 11:29:20;;;;;;;;;10.25;10.25;;;;;28.84;41.61;101056.38;5078652;27;45731;-75
2022/08/18 11:31:47;;;;;;;;;16.00;14.50;;;;;29.20;41.00;101050.94;5078503;27;45508;-75
2022/08/18 11:34:16;;;;;;;;;11.00;10.50;;;;;29.29;40.17;101055.34;5077147;27;46499;-75
2022/08/18 11:36:41;;;;;;;;;14.75;12.75;;;;;29.24;40.69;101063.88;5076598;27;45346;-75
2022/08/18 11:39:09;;;;;;;;;15.25;12.25;;;;;29.10;40.85;101067.97;5078488;28;45391;-75
2022/08/18 11:41:36;;;;;;;;;14.25;12.75;;;;;29.03;41.58;101069.59;5077220;28;45405;-75
2022/08/18 11:44:03;;;;;;;;;16.50;11.75;;;;;28.95;41.57;101062.31;5078241;27;46467;-75
2022/08/18 11:46:32;;;;;;;;;10.00;8.75;;;;;28.95;41.04;101059.63;5078208;27;45423;-75
2022/08/18 11:48:59;;;;;;;;;10.50;8.50;;;;;31.41;39.76;101062.06;5077172;28;45382;-74
2022/08/18 11:51:30;;;;;;;;;14.00;9.00;;;;;34.65;35.39;101066.69;5078192;27;45574;-76